South Hill, VA

7:24 PM EST on December 07, 2019 (GMT -0500)
Mecklenburg-Brunswick Regional

Weather History for KAVC - November, 2019

Change the Weather History Date:

Saturday, November 16, 2019

  Actual Average (KEMV) Record (KEMV)
Temperature  
Mean Temperature 42 °F -  
Max Temperature 46 °F 63 °F 83 °F (1993)
Min Temperature 39 °F 37 °F 24 °F (2014)
Degree Days  
Heating Degree Days 22    
Moisture  
Dew Point 28 °F    
Average Humidity 57    
Maximum Humidity 64    
Minimum Humidity 45    
Precipitation  
Precipitation 0.01 in - - ()
Sea Level Pressure  
Sea Level Pressure 30.24 in    
Wind  
Wind Speed 12 mph (NNE)    
Max Wind Speed 20 mph    
Max Gust Speed 31 mph    
Visibility 10 miles    
Events      
Averages and records for this station are not official NWS values.
T = Trace of Precipitation, MM = Missing Value Source: NWS Daily Summary

Daily Weather History Graph

Daily Weather History Graph

Search for Another Location

Airport or City:

Astronomy

Nov. 16, 2019 Rise Set
Actual Time 6:50 AM EST 5:02 PM EST
Civil Twilight 6:23 AM EST 5:30 PM EST
Nautical Twilight 5:51 AM EST 6:01 PM EST
Astronomical Twilight 5:21 AM EST 6:32 PM EST
Moon 8:36 PM EST (11/16) 10:40 AM EST (11/16)
Length of Visible Light 11h 06m
Length of Day
10h 11m
Waning Gibbous, 82% of the Moon is Illuminated
Nov 16
Waning Gibbous
Nov 19
Last Quarter
Nov 26
New
Dec 4
First Quarter
Dec 12
Full

Hourly Weather History & Observations

Time (EST) Temp. Windchill Dew Point Humidity Pressure Visibility Wind Dir Wind Speed Gust Speed Precip Events Conditions
12:35 AM 45.9 °F 41.2 °F 30.0 °F 54% 30.18 in 10.0 mi NNE 9.2 mph - N/A   Overcast
12:55 AM 45.9 °F 40.8 °F 29.3 °F 52% 30.17 in 10.0 mi North 10.4 mph 18.4 mph N/A   Overcast
1:15 AM 45.9 °F 40.0 °F 28.6 °F 51% 30.17 in 10.0 mi NNE 12.7 mph 18.4 mph N/A   Overcast
1:35 AM 46.0 °F 40.6 °F 27.3 °F 48% 30.16 in 10.0 mi North 11.5 mph 21.9 mph N/A   Overcast
2:15 AM 45.5 °F 40.3 °F 25.7 °F 46% 30.16 in 10.0 mi NNE 10.4 mph 19.6 mph N/A   Overcast
2:35 AM 45.5 °F 39.2 °F 25.2 °F 45% 30.16 in 10.0 mi North 13.8 mph 19.6 mph N/A   Overcast
2:55 AM 44.6 °F 39.7 °F 25.7 °F 48% 30.16 in 10.0 mi North 9.2 mph 17.3 mph N/A   Overcast
3:15 AM 44.1 °F 37.7 °F 25.7 °F 49% 30.17 in 10.0 mi North 12.7 mph 21.9 mph N/A   Overcast
3:35 AM 43.5 °F 37.1 °F 26.2 °F 51% 30.17 in 10.0 mi North 12.7 mph 20.7 mph N/A   Overcast
3:55 AM 43.0 °F 36.8 °F 25.9 °F 51% 30.17 in 10.0 mi North 11.5 mph 19.6 mph N/A   Overcast
4:15 AM 42.8 °F 35.8 °F 25.5 °F 51% 30.17 in 10.0 mi North 13.8 mph 21.9 mph N/A   Overcast
4:35 AM 42.8 °F 36.6 °F 25.3 °F 50% 30.18 in 10.0 mi North 11.5 mph 16.1 mph N/A   Overcast
4:55 AM 42.8 °F 36.6 °F 25.3 °F 50% 30.18 in 10.0 mi NNE 11.5 mph 20.7 mph N/A   Overcast
5:15 AM 42.8 °F 35.4 °F 25.3 °F 50% 30.19 in 10.0 mi North 15.0 mph 23.0 mph N/A   Overcast
5:35 AM 41.9 °F 34.6 °F 25.7 °F 53% 30.19 in 10.0 mi NNE 13.8 mph 28.8 mph N/A   Overcast
5:55 AM 41.2 °F 34.5 °F 26.1 °F 55% 30.20 in 10.0 mi NNE 11.5 mph 25.3 mph N/A   Overcast
6:15 AM 41.0 °F 34.3 °F 26.4 °F 56% 30.21 in 10.0 mi North 11.5 mph 25.3 mph N/A   Overcast
6:35 AM 40.3 °F 32.6 °F 26.6 °F 58% 30.22 in 10.0 mi North 13.8 mph 24.2 mph N/A   Overcast
6:55 AM 39.7 °F 31.5 °F 27.0 °F 60% 30.23 in 10.0 mi North 15.0 mph 20.7 mph N/A   Overcast
7:15 AM 39.4 °F 31.4 °F 27.3 °F 62% 30.24 in 10.0 mi North 13.8 mph 20.7 mph N/A   Overcast
7:35 AM 39.2 °F 30.5 °F 27.5 °F 63% 30.25 in 10.0 mi North 16.1 mph 24.2 mph N/A   Overcast
7:55 AM 39.4 °F 32.3 °F 27.9 °F 63% 30.26 in 10.0 mi NNE 11.5 mph 21.9 mph N/A   Overcast
8:15 AM 40.1 °F 34.1 °F 27.9 °F 62% 30.27 in 10.0 mi NNE 9.2 mph 27.6 mph N/A   Overcast
8:35 AM 40.8 °F 32.6 °F 27.9 °F 60% 30.27 in 10.0 mi NNE 16.1 mph 27.6 mph N/A   Overcast
8:55 AM 41.9 °F 35.9 °F 28.0 °F 58% 30.27 in 10.0 mi North 10.4 mph 23.0 mph N/A   Overcast
9:15 AM 42.6 °F 34.3 °F 27.7 °F 56% 30.27 in 10.0 mi NNE 18.4 mph 27.6 mph N/A   Overcast
9:35 AM 41.9 °F 33.1 °F 27.1 °F 56% 30.27 in 10.0 mi North 19.6 mph 28.8 mph N/A   Overcast
9:55 AM 42.8 °F 35.8 °F 27.1 °F 54% 30.28 in 10.0 mi NNE 13.8 mph 27.6 mph N/A   Mostly Cloudy
10:15 AM 43.3 °F 36.5 °F 27.1 °F 53% 30.28 in 10.0 mi NNE 13.8 mph 24.2 mph N/A   Overcast
10:35 AM 44.1 °F 37.7 °F 27.7 °F 53% 30.29 in 10.0 mi North 12.7 mph 23.0 mph N/A   Overcast
10:55 AM 43.9 °F 35.9 °F 28.2 °F 54% 30.29 in 10.0 mi North 18.4 mph 25.3 mph N/A   Overcast
11:15 AM 44.6 °F 38.8 °F 29.5 °F 55% 30.29 in 10.0 mi NNE 11.5 mph 25.3 mph N/A   Overcast
11:35 AM 44.2 °F 37.0 °F 30.0 °F 57% 30.29 in 10.0 mi NNE 16.1 mph 24.2 mph N/A   Overcast
11:55 AM 44.6 °F 37.2 °F 30.6 °F 58% 30.27 in 10.0 mi North 17.3 mph 26.5 mph N/A   Overcast
12:15 PM 44.6 °F 39.2 °F 30.7 °F 58% 30.27 in 10.0 mi North 10.4 mph 26.5 mph N/A   Overcast
12:35 PM 44.8 °F 38.0 °F 30.9 °F 58% 30.26 in 10.0 mi NNE 15.0 mph 21.9 mph N/A   Overcast
12:55 PM 44.8 °F 38.0 °F 30.9 °F 58% 30.26 in 10.0 mi NNE 15.0 mph 27.6 mph N/A   Overcast
1:15 PM 44.6 °F 38.1 °F 30.9 °F 59% 30.25 in 10.0 mi NNE 13.8 mph 26.5 mph N/A   Overcast
1:55 PM 44.8 °F 38.7 °F 31.6 °F 60% 30.24 in 10.0 mi North 12.7 mph 25.3 mph N/A   Overcast
2:35 PM 44.2 °F 37.0 °F 31.5 °F 61% 30.24 in 10.0 mi NNE 16.1 mph 31.1 mph N/A   Overcast
2:55 PM 43.7 °F 37.7 °F 31.8 °F 63% 30.24 in 10.0 mi NNE 11.5 mph 18.4 mph N/A   Overcast
3:15 PM 43.7 °F 36.0 °F 31.6 °F 63% 30.24 in 10.0 mi North 17.3 mph 24.2 mph N/A   Overcast
3:55 PM 43.2 °F 37.9 °F 30.7 °F 62% 30.26 in 10.0 mi NNE 9.2 mph 26.5 mph N/A   Overcast
4:15 PM 42.8 °F 35.4 °F 30.2 °F 61% 30.26 in 10.0 mi NNE 15.0 mph 20.7 mph N/A   Overcast
4:35 PM 42.8 °F 35.8 °F 29.8 °F 60% 30.26 in 10.0 mi NNE 13.8 mph 19.6 mph N/A   Overcast
4:55 PM 42.3 °F 34.4 °F 28.6 °F 58% 30.27 in 10.0 mi NNE 16.1 mph 26.5 mph N/A   Overcast
5:15 PM 42.3 °F 35.1 °F 28.4 °F 58% 30.27 in 10.0 mi NNE 13.8 mph 24.2 mph N/A   Overcast
5:35 PM 42.1 °F 34.9 °F 28.2 °F 58% 30.26 in 10.0 mi NNE 13.8 mph 26.5 mph N/A   Overcast
5:55 PM 41.9 °F 35.4 °F 28.0 °F 58% 30.26 in 10.0 mi North 11.5 mph 26.5 mph N/A   Overcast
6:15 PM 41.9 °F 34.0 °F 27.9 °F 58% 30.26 in 10.0 mi NNE 16.1 mph 21.9 mph N/A   Overcast
6:55 PM 41.4 °F 34.3 °F 27.5 °F 58% 30.25 in 10.0 mi North 12.7 mph 23.0 mph N/A   Overcast
7:15 PM 41.2 °F 34.1 °F 27.7 °F 59% 30.26 in 10.0 mi NNE 12.7 mph 24.2 mph N/A   Overcast
7:35 PM 41.0 °F 34.7 °F 27.5 °F 59% 30.25 in 10.0 mi North 10.4 mph 20.7 mph N/A   Overcast
7:55 PM 41.0 °F 33.9 °F 27.5 °F 59% 30.26 in 10.0 mi NNE 12.7 mph 18.4 mph N/A   Overcast
8:15 PM 40.6 °F 34.3 °F 27.5 °F 59% 30.26 in 10.0 mi NNE 10.4 mph 18.4 mph N/A   Overcast
8:35 PM 40.6 °F 33.4 °F 27.3 °F 59% 30.26 in 10.0 mi NNE 12.7 mph 20.7 mph N/A   Overcast
8:55 PM 40.5 °F 33.2 °F 27.3 °F 59% 30.25 in 10.0 mi North 12.7 mph 19.6 mph N/A   Overcast
9:15 PM 40.3 °F 33.9 °F 27.1 °F 59% 30.26 in 10.0 mi NNE 10.4 mph 17.3 mph N/A   Overcast
9:35 PM 40.1 °F 32.4 °F 27.1 °F 60% 30.24 in 10.0 mi North 13.8 mph 20.7 mph N/A   Overcast
10:15 PM 40.1 °F 32.0 °F 27.0 °F 59% 30.25 in 10.0 mi North 15.0 mph 21.9 mph N/A   Overcast
10:35 PM 39.7 °F 32.7 °F 27.3 °F 61% 30.25 in 10.0 mi NNE 11.5 mph 23.0 mph N/A   Overcast
10:55 PM 39.6 °F 33.0 °F 27.3 °F 62% 30.26 in 10.0 mi NNE 10.4 mph 16.1 mph N/A   Overcast
11:15 PM 39.6 °F 33.0 °F 27.7 °F 62% 30.25 in 10.0 mi NNE 10.4 mph 21.9 mph N/A   Overcast
11:35 PM 39.6 °F 33.0 °F 28.2 °F 64% 30.24 in 10.0 mi North 10.4 mph - N/A   Overcast
11:55 PM 39.4 °F 31.4 °F 28.2 °F 64% 30.24 in 10.0 mi North 13.8 mph 19.6 mph N/A   Overcast